Time;durP1;ratioP1;P1;durP2;ratioP2;P2;SDS_P1;SDS_P2;PMS_P1;PMS_P2;Temp;Humidity;BMP_temperature;BMP_pressure;BME280_temperature;BME280_humidity;BME280_pressure;Samples;Min_cycle;Max_cycle;Signal;HPM_P1;HPM_P2
2021/06/18 00:00:31;;;;;;;6.75;6.15;;;25.90;99.90;;;;;;5002745;28;20228;-80
2021/06/18 00:02:58;;;;;;;6.80;6.20;;;26.00;99.90;;;;;;5018749;28;20195;-82
2021/06/18 00:05:26;;;;;;;7.28;6.57;;;25.90;99.90;;;;;;5019929;28;20186;-81
2021/06/18 00:07:53;;;;;;;8.63;7.90;;;26.00;99.90;;;;;;5020040;28;20284;-82
2021/06/18 00:10:23;;;;;;;7.38;6.70;;;26.00;99.90;;;;;;5010620;28;20181;-81
2021/06/18 00:12:50;;;;;;;7.05;6.38;;;25.90;99.90;;;;;;5019876;28;20205;-82
2021/06/18 00:15:19;;;;;;;10.40;6.97;;;25.80;99.90;;;;;;5019683;28;20201;-82
2021/06/18 00:17:46;;;;;;;6.90;5.97;;;25.70;99.90;;;;;;5020066;28;20185;-81
2021/06/18 00:20:15;;;;;;;7.88;7.07;;;25.60;99.90;;;;;;5019831;28;20220;-81
2021/06/18 00:22:44;;;;;;;7.00;6.40;;;25.70;99.90;;;;;;5019987;28;20221;-81
2021/06/18 00:25:12;;;;;;;6.90;6.38;;;25.80;99.90;;;;;;5002992;28;20177;-81
2021/06/18 00:27:39;;;;;;;13.52;5.80;;;25.50;99.90;;;;;;5002916;28;20185;-81
2021/06/18 00:30:08;;;;;;;6.40;5.53;;;25.10;99.90;;;;;;5002880;28;20181;-80
2021/06/18 00:32:37;;;;;;;6.20;5.53;;;25.00;99.90;;;;;;5002968;28;20228;-79
2021/06/18 00:35:05;;;;;;;6.47;6.00;;;24.90;99.90;;;;;;5006590;28;20750;-81
2021/06/18 00:37:32;;;;;;;6.20;5.57;;;24.90;99.90;;;;;;5003668;28;20205;-82
2021/06/18 00:39:59;;;;;;;9.68;6.18;;;24.80;99.90;;;;;;5004363;28;20197;-81
2021/06/18 00:42:26;;;;;;;6.07;5.35;;;24.90;99.90;;;;;;5004038;28;20198;-81
2021/06/18 00:44:53;;;;;;;7.05;5.18;;;25.00;99.90;;;;;;5003519;28;20248;-81
2021/06/18 00:47:22;;;;;;;8.85;5.10;;;25.10;99.90;;;;;;4986682;28;20205;-81
2021/06/18 00:49:52;;;;;;;5.70;5.13;;;25.20;99.90;;;;;;5001758;28;20240;-82
2021/06/18 00:52:20;;;;;;;10.45;5.63;;;25.10;99.90;;;;;;4999916;28;20205;-81
2021/06/18 00:54:47;;;;;;;6.53;5.45;;;25.10;99.90;;;;;;4983345;28;20209;-81
2021/06/18 00:57:14;;;;;;;5.75;5.28;;;25.00;99.90;;;;;;5001573;28;20201;-81
2021/06/18 00:59:41;;;;;;;8.35;6.20;;;25.00;99.90;;;;;;5001227;28;20221;-81
2021/06/18 01:02:09;;;;;;;6.25;4.82;;;25.00;99.90;;;;;;5000392;28;20204;-81
2021/06/18 01:04:37;;;;;;;6.18;5.57;;;24.90;99.90;;;;;;5000358;28;20679;-81
2021/06/18 01:07:09;;;;;;;6.45;4.97;;;24.90;99.90;;;;;;5000500;28;20205;-81
2021/06/18 01:09:47;;;;;;;6.60;5.38;;;24.60;99.90;;;;;;4982510;28;20221;-81
2021/06/18 01:12:17;;;;;;;7.95;5.97;;;24.50;99.90;;;;;;4982213;28;20722;-82
2021/06/18 01:14:55;;;;;;;7.03;6.43;;;24.50;99.90;;;;;;4999573;28;20288;-81
2021/06/18 01:17:26;;;;;;;9.25;7.15;;;24.50;99.90;;;;;;4983010;28;20221;-82
2021/06/18 01:20:10;;;;;;;7.20;6.65;;;24.40;99.90;;;;;;4999942;28;20241;-81
2021/06/18 01:22:40;;;;;;;8.02;7.25;;;24.40;99.90;;;;;;4983002;28;20224;-81
2021/06/18 01:25:15;;;;;;;8.00;7.30;;;24.30;99.90;;;;;;5000122;28;20209;-81
2021/06/18 01:27:51;;;;;;;11.00;7.97;;;24.20;99.90;;;;;;4999680;28;20212;-82
2021/06/18 01:30:21;;;;;;;11.13;8.25;;;24.10;99.90;;;;;;4999159;28;20663;-82
2021/06/18 01:32:57;;;;;;;8.20;7.28;;;23.90;99.90;;;;;;4999340;28;20228;-81
2021/06/18 01:35:29;;;;;;;11.10;8.10;;;23.80;99.90;;;;;;5001129;28;20209;-82
2021/06/18 01:37:59;;;;;;;7.90;7.20;;;23.80;99.90;;;;;;4999234;28;20276;-81
2021/06/18 01:40:28;;;;;;;8.15;7.43;;;23.80;99.90;;;;;;4999679;28;20255;-82
2021/06/18 01:42:57;;;;;;;8.45;7.60;;;23.70;99.90;;;;;;4998861;28;20589;-81
2021/06/18 01:45:27;;;;;;;8.27;7.65;;;23.70;99.90;;;;;;5000197;28;20204;-81
2021/06/18 01:47:57;;;;;;;9.20;7.85;;;23.80;99.90;;;;;;4998618;28;20723;-81
2021/06/18 01:50:26;;;;;;;8.70;8.00;;;23.70;99.90;;;;;;4997509;28;20235;-81
2021/06/18 01:53:00;;;;;;;13.20;8.77;;;23.40;99.90;;;;;;4996903;28;20225;-82
2021/06/18 01:55:28;;;;;;;9.02;8.15;;;23.40;99.90;;;;;;4996917;28;20220;-81
2021/06/18 01:57:59;;;;;;;10.27;8.75;;;23.40;99.90;;;;;;4979644;28;20280;-81
2021/06/18 02:00:28;;;;;;;18.83;9.00;;;23.10;99.90;;;;;;4965144;28;20209;-82
2021/06/18 02:02:58;;;;;;;10.38;9.55;;;23.00;99.90;;;;;;4981107;28;20193;-82
2021/06/18 02:05:26;;;;;;;9.93;8.57;;;23.00;99.90;;;;;;5004076;28;20209;-81
2021/06/18 02:07:57;;;;;;;9.55;8.60;;;23.00;99.90;;;;;;4968228;28;20284;-81
2021/06/18 02:10:42;;;;;;;9.80;8.90;;;22.90;99.90;;;;;;4965783;28;20233;-81
2021/06/18 02:13:10;;;;;;;11.20;8.95;;;22.80;99.90;;;;;;4967703;28;20218;-81
2021/06/18 02:15:42;;;;;;;9.80;8.98;;;22.90;99.90;;;;;;5001321;28;20269;-82
2021/06/18 02:18:13;;;;;;;9.98;8.48;;;22.90;99.90;;;;;;5002371;28;20364;-81
2021/06/18 02:20:41;;;;;;;12.52;8.70;;;22.80;99.90;;;;;;5003460;28;20209;-83
2021/06/18 02:23:10;;;;;;;12.25;8.80;;;22.80;99.90;;;;;;4984379;28;20268;-82
2021/06/18 02:25:39;;;;;;;13.48;9.05;;;22.70;99.90;;;;;;5005347;28;20201;-82
2021/06/18 02:28:06;;;;;;;9.50;8.50;;;22.70;99.90;;;;;;5001598;28;20241;-82
2021/06/18 02:30:34;;;;;;;10.13;8.15;;;22.60;99.90;;;;;;5001174;28;20198;-82
2021/06/18 02:33:10;;;;;;;11.70;7.88;;;22.50;99.90;;;;;;5001047;28;20732;-81
2021/06/18 02:35:37;;;;;;;8.93;8.02;;;22.50;99.90;;;;;;5003838;28;20219;-82
2021/06/18 02:38:05;;;;;;;9.48;8.45;;;22.70;99.90;;;;;;4981685;28;20245;-82
2021/06/18 02:40:32;;;;;;;8.38;7.57;;;22.60;99.90;;;;;;4995828;28;20208;-81
2021/06/18 02:42:59;;;;;;;9.73;7.95;;;22.50;99.90;;;;;;5002335;28;20676;-81
2021/06/18 02:45:26;;;;;;;8.82;8.00;;;22.50;99.90;;;;;;5005242;28;20216;-81
2021/06/18 02:47:59;;;;;;;8.43;7.70;;;22.50;99.90;;;;;;5006110;28;20221;-80
2021/06/18 02:50:37;;;;;;;10.60;9.48;;;22.50;99.90;;;;;;4989862;28;20738;-81
2021/06/18 02:53:15;;;;;;;9.23;8.35;;;22.50;99.90;;;;;;4974395;28;20700;-81
2021/06/18 02:55:48;;;;;;;8.80;7.80;;;22.50;99.90;;;;;;5009056;28;20186;-82
2021/06/18 02:58:20;;;;;;;8.45;7.75;;;22.40;99.90;;;;;;5014610;28;20213;-81
2021/06/18 03:00:48;;;;;;;8.00;6.90;;;22.30;99.90;;;;;;5009543;28;20229;-81
2021/06/18 03:03:19;;;;;;;8.80;7.90;;;22.30;99.90;;;;;;5009731;28;20212;-81
2021/06/18 03:05:50;;;;;;;8.55;7.55;;;22.40;99.90;;;;;;5010070;28;20206;-81
2021/06/18 03:08:19;;;;;;;11.75;7.97;;;22.50;99.90;;;;;;5008921;28;20229;-81
2021/06/18 03:10:51;;;;;;;8.65;7.82;;;22.50;99.90;;;;;;5009065;28;20218;-81
2021/06/18 03:13:21;;;;;;;10.48;8.10;;;22.40;99.90;;;;;;5008845;28;20578;-82
2021/06/18 03:15:49;;;;;;;8.93;8.10;;;22.40;99.90;;;;;;5009214;28;20205;-82
2021/06/18 03:18:19;;;;;;;7.97;7.22;;;22.30;99.90;;;;;;4991235;28;20264;-81
2021/06/18 03:20:52;;;;;;;9.43;7.30;;;22.30;99.90;;;;;;5007610;28;20221;-81
2021/06/18 03:23:51;;;;;;;11.30;7.78;;;22.50;99.90;;;;;;5002947;28;20719;-84
2021/06/18 03:26:18;;;;;;;9.25;7.90;;;22.40;99.90;;;;;;5001468;28;20238;-83
2021/06/18 03:28:46;;;;;;;7.78;7.00;;;22.20;99.90;;;;;;4986778;28;20245;-83
2021/06/18 03:31:25;;;;;;;9.35;6.72;;;22.20;99.90;;;;;;4987969;28;20209;-82
2021/06/18 03:33:53;;;;;;;9.15;8.25;;;22.30;99.90;;;;;;5011723;28;20213;-82
2021/06/18 03:36:45;;;;;;;8.13;7.28;;;22.30;99.90;;;;;;5010980;28;20228;-82
2021/06/18 03:39:22;;;;;;;9.02;6.97;;;22.20;99.90;;;;;;5011580;28;20320;-83
2021/06/18 03:41:53;;;;;;;7.35;6.35;;;22.20;99.90;;;;;;4994594;28;20205;-82
2021/06/18 03:44:41;;;;;;;7.68;6.97;;;22.20;99.90;;;;;;5011012;28;20197;-81
2021/06/18 03:47:17;;;;;;;9.52;6.80;;;22.20;99.90;;;;;;4994537;28;20189;-83
2021/06/18 03:49:57;;;;;;;7.07;6.38;;;22.30;99.90;;;;;;5010645;28;20225;-83
2021/06/18 03:52:28;;;;;;;11.07;8.20;;;22.50;99.90;;;;;;5011134;28;20210;-82
2021/06/18 03:55:09;;;;;;;7.88;6.63;;;22.40;99.90;;;;;;4993491;28;20277;-82
2021/06/18 03:57:36;;;;;;;11.23;7.57;;;22.20;99.90;;;;;;5009805;28;20224;-82
2021/06/18 04:00:06;;;;;;;10.95;7.15;;;22.20;99.90;;;;;;5009654;28;20276;-82
2021/06/18 04:02:52;;;;;;;7.97;6.70;;;22.10;99.90;;;;;;5010190;28;20205;-83
2021/06/18 04:05:36;;;;;;;7.78;6.75;;;22.20;99.90;;;;;;4992121;28;20251;-83
2021/06/18 04:08:19;;;;;;;7.93;7.07;;;22.20;99.90;;;;;;5004959;28;20217;-82
2021/06/18 04:10:46;;;;;;;8.57;7.72;;;22.10;99.90;;;;;;5007122;28;20204;-82
2021/06/18 04:13:14;;;;;;;8.00;6.32;;;22.10;99.90;;;;;;5006101;28;20264;-83
2021/06/18 04:18:31;;;;;;;9.25;6.18;;;22.30;99.90;;;;;;5006372;28;20217;-82
2021/06/18 04:21:21;;;;;;;7.25;6.55;;;22.30;99.90;;;;;;5007535;28;20199;-83
2021/06/18 04:23:53;;;;;;;7.55;6.68;;;22.40;99.90;;;;;;4986261;28;20634;-82
2021/06/18 04:26:30;;;;;;;12.13;7.18;;;22.50;99.90;;;;;;5005908;28;20707;-82
2021/06/18 04:29:33;;;;;;;7.43;6.75;;;22.50;99.90;;;;;;5017264;28;20244;-82
2021/06/18 04:32:01;;;;;;;7.75;7.05;;;22.50;99.90;;;;;;5026036;28;20200;-83
2021/06/18 04:34:30;;;;;;;8.70;6.82;;;22.50;99.90;;;;;;4988408;28;20227;-83
2021/06/18 04:36:57;;;;;;;7.63;6.88;;;22.60;99.90;;;;;;5005034;28;20197;-83
2021/06/18 04:39:25;;;;;;;8.20;7.38;;;22.70;99.90;;;;;;4986708;28;20222;-83
2021/06/18 04:41:55;;;;;;;8.65;7.57;;;22.80;99.90;;;;;;5005263;28;20252;-83
2021/06/18 04:44:57;;;;;;;11.40;7.93;;;22.60;99.90;;;;;;4986694;28;20629;-82
2021/06/18 04:47:24;;;;;;;7.70;6.78;;;22.70;99.90;;;;;;5004580;28;20308;-83
2021/06/18 04:49:52;;;;;;;7.60;6.90;;;22.90;99.90;;;;;;4985753;28;20233;-82
2021/06/18 04:52:19;;;;;;;10.07;7.22;;;22.90;99.90;;;;;;4985843;28;20205;-83
2021/06/18 04:54:54;;;;;;;8.15;6.63;;;22.80;99.90;;;;;;5004046;28;20691;-82
2021/06/18 04:57:21;;;;;;;9.45;7.53;;;22.80;99.90;;;;;;5004615;28;20735;-83
2021/06/18 04:59:52;;;;;;;8.98;7.88;;;23.00;99.90;;;;;;5003285;28;20316;-82
2021/06/18 05:02:28;;;;;;;12.48;6.55;;;23.10;99.90;;;;;;5003531;28;20222;-82
2021/06/18 05:04:55;;;;;;;11.82;8.57;;;23.10;99.90;;;;;;5004467;28;20189;-83
2021/06/18 05:07:23;;;;;;;11.48;8.35;;;23.20;99.90;;;;;;5002221;28;20206;-82
2021/06/18 05:09:56;;;;;;;8.55;7.63;;;23.20;99.90;;;;;;4999275;28;20221;-83
2021/06/18 05:12:26;;;;;;;8.55;7.75;;;23.20;99.90;;;;;;4986066;28;20197;-83
2021/06/18 05:14:56;;;;;;;10.27;6.93;;;23.30;99.90;;;;;;5008689;28;20217;-82
2021/06/18 05:17:23;;;;;;;9.18;6.88;;;23.30;99.90;;;;;;5009168;28;20244;-83
2021/06/18 05:19:50;;;;;;;11.30;8.63;;;23.40;99.90;;;;;;5009336;28;20225;-82
2021/06/18 05:22:20;;;;;;;7.78;6.97;;;23.60;99.90;;;;;;5009720;28;20240;-82
2021/06/18 05:24:47;;;;;;;12.57;8.15;;;23.50;99.90;;;;;;5009069;28;20201;-82
2021/06/18 05:27:15;;;;;;;8.85;7.97;;;23.70;99.90;;;;;;5006887;28;20193;-82
2021/06/18 05:29:42;;;;;;;9.00;7.90;;;23.50;99.90;;;;;;5007223;28;20312;-82
2021/06/18 05:40:53;;;;;;;10.75;8.35;;;23.20;99.90;;;;;;4977590;28;20220;-82
2021/06/18 05:43:21;;;;;;;8.43;7.72;;;23.30;99.90;;;;;;5006244;28;20225;-83
2021/06/18 05:45:52;;;;;;;9.77;8.25;;;23.50;99.90;;;;;;4996644;28;20473;-83
2021/06/18 05:48:44;;;;;;;10.98;7.22;;;23.50;99.90;;;;;;5006225;28;20225;-82
2021/06/18 05:51:11;;;;;;;8.60;7.63;;;23.70;99.90;;;;;;4989969;28;20619;-82
2021/06/18 05:53:39;;;;;;;9.80;8.30;;;23.80;99.90;;;;;;5003711;28;20245;-82
2021/06/18 05:56:09;;;;;;;8.65;7.40;;;24.00;99.90;;;;;;5001387;28;20225;-82
2021/06/18 05:58:37;;;;;;;15.48;8.05;;;23.90;99.90;;;;;;5000373;28;20747;-81
2021/06/18 06:01:07;;;;;;;11.35;8.52;;;23.90;99.90;;;;;;5005000;28;20213;-82
2021/06/18 06:03:35;;;;;;;9.15;7.15;;;24.10;99.90;;;;;;5005733;28;20201;-82
2021/06/18 06:06:02;;;;;;;8.98;8.13;;;24.00;99.90;;;;;;5006813;28;20193;-82
2021/06/18 06:08:30;;;;;;;8.45;7.60;;;24.10;99.90;;;;;;5001424;28;20241;-80
2021/06/18 06:10:57;;;;;;;8.88;8.15;;;24.10;99.90;;;;;;4979585;28;20229;-81
2021/06/18 06:13:25;;;;;;;11.05;8.98;;;24.20;99.90;;;;;;5000520;28;20225;-81
2021/06/18 06:15:54;;;;;;;12.13;7.53;;;24.50;99.90;;;;;;4983680;28;20221;-81
2021/06/18 06:18:21;;;;;;;9.05;8.23;;;24.70;99.90;;;;;;5001646;28;20221;-81
2021/06/18 06:20:49;;;;;;;11.57;8.25;;;24.70;99.90;;;;;;5001020;28;20212;-82
2021/06/18 06:23:16;;;;;;;12.95;9.07;;;24.70;99.90;;;;;;5000197;28;20269;-81
2021/06/18 06:25:44;;;;;;;9.90;8.07;;;24.90;99.90;;;;;;5003366;28;20192;-80
2021/06/18 06:28:11;;;;;;;9.77;8.75;;;24.70;99.90;;;;;;4985638;28;20666;-79
2021/06/18 06:30:38;;;;;;;9.32;8.50;;;24.70;99.90;;;;;;4981276;28;20240;-80
2021/06/18 06:33:07;;;;;;;8.38;7.55;;;24.70;99.90;;;;;;4999314;28;20428;-81
2021/06/18 06:35:34;;;;;;;9.38;7.28;;;24.90;99.90;;;;;;4978733;28;20232;-81
2021/06/18 06:38:01;;;;;;;9.52;7.93;;;25.10;99.90;;;;;;4970956;28;20240;-81
2021/06/18 06:40:28;;;;;;;11.40;8.82;;;25.30;99.90;;;;;;4980021;28;20201;-81
2021/06/18 06:42:58;;;;;;;11.15;8.23;;;25.40;99.90;;;;;;4982724;28;20197;-81
2021/06/18 06:45:26;;;;;;;8.35;7.45;;;25.50;99.90;;;;;;4997850;28;20244;-81
2021/06/18 06:47:53;;;;;;;8.32;7.57;;;25.50;99.90;;;;;;4984913;28;20309;-81
2021/06/18 06:50:21;;;;;;;8.98;7.20;;;25.40;99.90;;;;;;4990469;28;20244;-81
2021/06/18 06:52:48;;;;;;;8.73;7.93;;;25.30;99.90;;;;;;4997371;28;20261;-82
2021/06/18 06:55:15;;;;;;;8.77;7.82;;;25.70;99.90;;;;;;4979215;28;20692;-81
2021/06/18 06:57:43;;;;;;;7.97;7.28;;;26.00;99.90;;;;;;4995750;28;20198;-81
2021/06/18 07:00:11;;;;;;;9.45;8.10;;;26.00;99.90;;;;;;4987005;28;20225;-83
2021/06/18 07:02:38;;;;;;;7.50;6.88;;;26.00;99.90;;;;;;4995533;28;20202;-81
2021/06/18 07:05:06;;;;;;;8.40;7.43;;;25.80;99.90;;;;;;4994063;28;21418;-82
2021/06/18 07:07:34;;;;;;;14.10;7.30;;;26.00;99.90;;;;;;5000298;28;20186;-81
2021/06/18 07:10:01;;;;;;;8.15;7.45;;;26.40;99.90;;;;;;4985023;28;20194;-83
2021/06/18 07:12:29;;;;;;;9.20;7.57;;;26.30;99.90;;;;;;5002554;28;20668;-83
2021/06/18 07:14:56;;;;;;;8.07;7.30;;;26.30;99.90;;;;;;4982788;28;20221;-85
2021/06/18 07:17:23;;;;;;;9.90;7.30;;;26.20;99.90;;;;;;4985084;28;20252;-85
2021/06/18 07:19:51;;;;;;;8.52;7.72;;;26.30;99.90;;;;;;4969521;28;20225;-82
2021/06/18 07:22:19;;;;;;;8.68;7.82;;;26.50;99.90;;;;;;5002280;28;20236;-82
2021/06/18 07:24:48;;;;;;;9.60;7.65;;;26.40;99.90;;;;;;4987425;28;20200;-83
2021/06/18 07:27:15;;;;;;;7.35;6.65;;;26.60;99.90;;;;;;4980339;28;20201;-82
2021/06/18 07:29:43;;;;;;;7.15;6.50;;;26.60;99.90;;;;;;4993450;28;20221;-82
2021/06/18 07:32:11;;;;;;;7.68;6.35;;;26.90;99.90;;;;;;5005992;28;20221;-83
2021/06/18 07:34:38;;;;;;;8.13;7.35;;;27.20;99.90;;;;;;4987368;28;20235;-82
2021/06/18 07:37:06;;;;;;;8.38;7.53;;;27.40;99.90;;;;;;4968072;28;20233;-81
2021/06/18 07:39:33;;;;;;;7.55;6.95;;;27.10;99.90;;;;;;4990929;28;20225;-82
2021/06/18 07:42:02;;;;;;;8.32;6.85;;;27.00;99.90;;;;;;5000164;28;20231;-81
2021/06/18 07:44:29;;;;;;;9.63;6.95;;;27.00;99.90;;;;;;4998090;28;20659;-82
2021/06/18 07:46:56;;;;;;;8.57;7.05;;;27.30;99.90;;;;;;4998396;28;20212;-81
2021/06/18 07:49:23;;;;;;;6.93;6.43;;;27.40;99.90;;;;;;4993013;28;20260;-82
2021/06/18 07:51:50;;;;;;;7.15;6.50;;;27.50;99.90;;;;;;4998883;28;20288;-82
2021/06/18 07:54:17;;;;;;;8.13;7.20;;;27.70;99.90;;;;;;5015350;28;20192;-82
2021/06/18 07:56:46;;;;;;;8.73;7.85;;;28.00;99.90;;;;;;4999415;28;20312;-84
2021/06/18 07:59:14;;;;;;;8.55;6.18;;;28.00;99.90;;;;;;4988220;28;20225;-81
2021/06/18 08:01:41;;;;;;;7.63;6.88;;;28.10;99.90;;;;;;4980557;28;20233;-83
2021/06/18 08:04:08;;;;;;;6.63;5.85;;;28.50;99.90;;;;;;5002625;28;20564;-82
2021/06/18 08:06:36;;;;;;;6.65;6.05;;;28.60;99.90;;;;;;4983178;28;20185;-82
2021/06/18 08:09:03;;;;;;;6.35;5.65;;;28.70;99.90;;;;;;4999823;28;20256;-82
2021/06/18 08:11:30;;;;;;;6.30;5.75;;;28.60;99.90;;;;;;4972428;28;20247;-82
2021/06/18 08:13:59;;;;;;;7.30;6.45;;;28.80;99.90;;;;;;4999200;28;20703;-82
2021/06/18 08:16:27;;;;;;;7.78;5.97;;;29.10;99.90;;;;;;4999882;28;20304;-82
2021/06/18 08:18:54;;;;;;;7.82;5.80;;;29.10;99.90;;;;;;5001247;28;20232;-82
2021/06/18 08:21:21;;;;;;;8.15;5.45;;;28.90;99.90;;;;;;5004420;28;20228;-83
2021/06/18 08:23:48;;;;;;;7.07;6.38;;;28.60;99.90;;;;;;4967260;28;20229;-83
2021/06/18 08:26:15;;;;;;;7.45;5.55;;;28.50;99.90;;;;;;5003677;28;20261;-82
2021/06/18 08:28:42;;;;;;;6.53;5.93;;;28.60;99.90;;;;;;4999926;28;20251;-80
2021/06/18 08:31:09;;;;;;;9.73;5.60;;;28.80;99.90;;;;;;4999131;28;20201;-81
2021/06/18 08:33:38;;;;;;;7.50;6.43;;;29.00;99.90;;;;;;4986939;28;20201;-82
2021/06/18 08:36:07;;;;;;;6.30;5.70;;;29.30;99.90;;;;;;4982235;28;20236;-82
2021/06/18 08:38:35;;;;;;;6.22;5.63;;;29.70;99.90;;;;;;5001318;28;20244;-82
2021/06/18 08:41:04;;;;;;;6.43;5.93;;;29.80;99.90;;;;;;4998690;28;20194;-81
2021/06/18 08:43:33;;;;;;;6.28;5.65;;;30.10;99.90;;;;;;4999461;28;20268;-81
2021/06/18 08:46:02;;;;;;;7.90;5.45;;;30.30;99.90;;;;;;4971969;28;20193;-84
2021/06/18 08:48:29;;;;;;;7.72;6.20;;;30.10;99.90;;;;;;5004452;28;20241;-81
2021/06/18 08:50:58;;;;;;;8.13;5.50;;;30.30;99.90;;;;;;4980485;28;20278;-84
2021/06/18 08:53:26;;;;;;;7.50;6.55;;;30.50;99.90;;;;;;4997408;28;20747;-84
2021/06/18 08:55:55;;;;;;;6.18;5.75;;;30.50;99.90;;;;;;4996953;28;20209;-84
2021/06/18 08:58:22;;;;;;;6.15;5.55;;;30.60;99.90;;;;;;4997123;28;20774;-84
2021/06/18 09:00:51;;;;;;;6.13;5.32;;;30.50;99.90;;;;;;4997161;28;20197;-83
2021/06/18 09:03:41;;;;;;;6.30;5.60;;;30.60;99.90;;;;;;4997300;28;20616;-83
2021/06/18 09:06:36;;;;;;;6.82;6.20;;;30.60;99.90;;;;;;4979569;28;20575;-83
2021/06/18 09:09:14;;;;;;;5.53;5.13;;;31.00;99.90;;;;;;4998276;28;20217;-85
2021/06/18 09:11:44;;;;;;;6.30;5.70;;;31.00;99.90;;;;;;5005072;28;20209;-82
2021/06/18 09:14:30;;;;;;;7.93;5.47;;;31.00;99.90;;;;;;5010987;28;20205;-83
2021/06/18 09:17:19;;;;;;;6.70;6.03;;;31.20;99.90;;;;;;4979949;28;20716;-83
2021/06/18 09:19:49;;;;;;;6.63;6.13;;;31.30;99.90;;;;;;4980010;28;20244;-82
2021/06/18 09:22:20;;;;;;;6.65;6.05;;;31.30;99.90;;;;;;4978183;28;20225;-80
2021/06/18 09:24:49;;;;;;;6.10;5.60;;;31.30;99.90;;;;;;4978840;28;20197;-83
2021/06/18 09:27:28;;;;;;;6.85;5.13;;;31.40;99.90;;;;;;4996458;28;20324;-83
2021/06/18 09:29:55;;;;;;;5.70;5.30;;;31.40;99.90;;;;;;4996538;28;20232;-83
2021/06/18 09:32:22;;;;;;;6.72;6.22;;;31.70;99.90;;;;;;4996135;28;20288;-83
2021/06/18 09:34:59;;;;;;;7.95;6.22;;;31.70;99.90;;;;;;4997308;28;20676;-82
2021/06/18 09:37:31;;;;;;;5.97;5.38;;;32.00;99.90;;;;;;4979795;28;20213;-82
2021/06/18 09:40:08;;;;;;;10.32;5.53;;;32.40;99.90;;;;;;4996076;28;20259;-82
2021/06/18 09:42:37;;;;;;;5.20;4.80;;;32.10;99.90;;;;;;4980899;28;20579;-83
2021/06/18 09:45:08;;;;;;;6.55;5.97;;;32.40;99.90;;;;;;4998473;28;20200;-82
2021/06/18 09:47:36;;;;;;;9.77;6.15;;;32.40;99.90;;;;;;4995804;28;20220;-85
2021/06/18 09:50:05;;;;;;;6.05;5.55;;;32.40;99.90;;;;;;4988804;28;20197;-84
2021/06/18 09:52:34;;;;;;;11.10;5.38;;;32.60;99.90;;;;;;4998386;28;20209;-86
2021/06/18 09:55:02;;;;;;;6.85;5.78;;;32.60;99.90;;;;;;4993115;28;20205;-87
2021/06/18 09:57:39;;;;;;;6.32;5.72;;;32.50;99.90;;;;;;4975198;28;20599;-87
2021/06/18 10:00:19;;;;;;;5.53;5.07;;;32.50;99.90;;;;;;5106382;27;20567;-39
2021/06/18 10:02:48;;;;;;;5.50;5.00;;;32.40;99.90;;;;;;5099522;28;20579;-37
2021/06/18 10:05:17;;;;;;;14.23;6.32;;;32.60;99.90;;;;;;5093867;28;20216;-40
2021/06/18 10:07:46;;;;;;;6.47;5.82;;;32.70;99.90;;;;;;5095261;28;20217;-39
2021/06/18 10:10:15;;;;;;;6.13;5.53;;;32.80;99.90;;;;;;5097761;28;20280;-38
2021/06/18 10:12:43;;;;;;;5.68;5.28;;;33.00;99.90;;;;;;5110516;22;20218;-42
2021/06/18 10:15:12;;;;;;;6.07;5.47;;;33.00;99.90;;;;;;5095329;28;20228;-39
2021/06/18 10:17:42;;;;;;;5.88;5.10;;;33.00;99.90;;;;;;5100299;28;20555;-40
2021/06/18 10:20:11;;;;;;;5.82;5.32;;;33.20;99.90;;;;;;5104975;28;20220;-38
2021/06/18 10:22:47;;;;;;;5.10;4.65;;;33.60;99.90;;;;;;5102423;28;20244;-41
2021/06/18 10:25:19;;;;;;;11.82;5.38;;;33.50;99.90;;;;;;5079345;28;20268;-40
2021/06/18 10:27:48;;;;;;;8.57;5.63;;;33.50;99.90;;;;;;5064300;28;20284;-38
2021/06/18 10:30:28;;;;;;;6.53;4.43;;;33.70;99.90;;;;;;5063237;28;20211;-39
2021/06/18 10:32:58;;;;;;;7.80;5.82;;;33.80;99.90;;;;;;5074167;28;20214;-40
2021/06/18 10:35:49;;;;;;;9.48;4.97;;;33.70;99.90;;;;;;5075289;28;20259;-44
2021/06/18 10:38:26;;;;;;;4.72;4.30;;;33.80;99.90;;;;;;5071862;28;20302;-40
2021/06/18 10:40:55;;;;;;;5.75;4.57;;;33.50;99.90;;;;;;5081425;28;20598;-40
2021/06/18 10:43:22;;;;;;;8.77;5.45;;;33.40;99.90;;;;;;5082814;28;20547;-39
2021/06/18 10:46:15;;;;;;;5.25;4.70;;;33.50;99.90;;;;;;5074331;28;20281;-39
2021/06/18 10:49:07;;;;;;;6.13;4.55;;;33.70;99.90;;;;;;5075089;28;20282;-40
2021/06/18 10:51:45;;;;;;;5.40;4.80;;;33.50;99.90;;;;;;5078531;28;20365;-40
2021/06/18 10:54:17;;;;;;;6.30;5.00;;;33.60;99.90;;;;;;5066436;28;20280;-40
2021/06/18 10:56:58;;;;;;;6.90;5.15;;;33.90;99.90;;;;;;5066135;28;20199;-38
2021/06/18 10:59:37;;;;;;;4.78;4.38;;;34.10;99.90;;;;;;5079094;28;20932;-43
2021/06/18 11:02:39;;;;;;;7.70;5.43;;;34.20;99.90;;;;;;5071235;28;20203;-38
2021/06/18 11:05:36;;;;;;;6.03;5.18;;;34.30;99.90;;;;;;5073948;28;20294;-41
2021/06/18 11:08:45;;;;;;;5.25;4.68;;;34.60;99.90;;;;;;5077240;28;20198;-38
2021/06/18 11:11:28;;;;;;;5.15;4.75;;;35.00;99.90;;;;;;4993922;28;20201;-39
2021/06/18 11:14:01;;;;;;;6.72;4.57;;;35.00;99.90;;;;;;5050753;28;20223;-39
2021/06/18 11:16:33;;;;;;;5.22;4.85;;;35.10;99.90;;;;;;5071365;28;20765;-39
2021/06/18 11:19:21;;;;;;;5.53;4.90;;;35.20;99.90;;;;;;5072236;28;20224;-42
2021/06/18 11:21:50;;;;;;;4.57;4.28;;;35.10;99.90;;;;;;5060899;28;20215;-40
2021/06/18 11:24:32;;;;;;;4.80;4.40;;;35.10;99.90;;;;;;5052781;28;20223;-39
2021/06/18 11:41:40;;;;;;;5.55;5.05;;;34.90;99.90;;;;;;5026163;28;20553;-38
2021/06/18 11:44:10;;;;;;;5.93;5.43;;;36.40;99.90;;;;;;4993342;28;20204;-40
2021/06/18 11:46:38;;;;;;;5.43;5.00;;;36.10;99.90;;;;;;5004182;28;20216;-38
2021/06/18 11:49:10;;;;;;;6.25;5.55;;;35.80;99.90;;;;;;5002335;28;20300;-40
2021/06/18 11:51:38;;;;;;;7.45;5.80;;;35.90;99.90;;;;;;5002823;28;20303;-38
2021/06/18 11:54:06;;;;;;;6.80;6.28;;;36.00;99.90;;;;;;5007132;28;20278;-38
2021/06/18 11:56:36;;;;;;;6.90;6.20;;;35.90;99.90;;;;;;5000430;28;20201;-40
2021/06/18 11:59:12;;;;;;;6.38;5.78;;;35.90;99.90;;;;;;4995898;28;20256;-38
2021/06/18 12:01:39;;;;;;;8.65;6.32;;;35.80;99.90;;;;;;4995879;28;20225;-38
2021/06/18 12:04:14;;;;;;;7.43;5.55;;;35.90;99.90;;;;;;5007298;28;20645;-38
2021/06/18 12:06:41;;;;;;;6.32;5.85;;;35.90;99.90;;;;;;5007597;28;20209;-39
2021/06/18 12:09:10;;;;;;;7.43;6.88;;;35.80;99.90;;;;;;5007639;28;20293;-38
2021/06/18 12:11:40;;;;;;;7.20;6.40;;;36.10;99.90;;;;;;4995039;28;20222;-37
2021/06/18 12:14:10;;;;;;;7.70;6.80;;;36.00;99.90;;;;;;4990500;28;20208;-37
2021/06/18 12:16:39;;;;;;;7.30;6.72;;;35.60;99.90;;;;;;5005600;28;20243;-37
2021/06/18 12:19:20;;;;;;;11.18;5.22;;;35.50;99.90;;;;;;5018163;28;20250;-39
2021/06/18 12:21:58;;;;;;;6.60;6.10;;;35.50;99.90;;;;;;4994744;28;20236;-37
2021/06/18 12:24:33;;;;;;;6.18;5.70;;;35.50;99.90;;;;;;4998033;28;20204;-37
2021/06/18 12:27:01;;;;;;;7.38;6.78;;;35.40;99.90;;;;;;5005550;28;20266;-38
2021/06/18 12:29:31;;;;;;;7.75;7.05;;;35.30;99.90;;;;;;5000664;28;20729;-38
2021/06/18 12:31:59;;;;;;;10.50;6.78;;;35.40;99.90;;;;;;5005826;28;20251;-38
2021/06/18 12:34:27;;;;;;;8.80;6.00;;;35.80;99.90;;;;;;5002553;28;20224;-39
2021/06/18 12:37:04;;;;;;;7.20;6.57;;;35.90;99.90;;;;;;5004479;28;20610;-42
2021/06/18 12:39:31;;;;;;;9.27;6.47;;;36.30;99.90;;;;;;5006310;28;20259;-39
2021/06/18 12:41:58;;;;;;;8.77;6.93;;;36.60;99.90;;;;;;4988952;28;20701;-38
2021/06/18 12:44:37;;;;;;;9.55;6.88;;;36.90;99.90;;;;;;4991523;28;20805;-39
2021/06/18 12:47:09;;;;;;;6.95;6.45;;;37.20;99.90;;;;;;4979929;28;20216;-41
2021/06/18 12:49:36;;;;;;;6.78;6.15;;;37.10;99.90;;;;;;4992426;28;20232;-39
2021/06/18 12:52:13;;;;;;;5.95;5.45;;;36.80;99.90;;;;;;4992870;28;20307;-38
2021/06/18 12:54:41;;;;;;;7.57;6.85;;;37.00;99.90;;;;;;4985291;28;20248;-38
2021/06/18 12:57:22;;;;;;;6.93;6.30;;;37.30;99.90;;;;;;4988550;28;20205;-38
2021/06/18 13:00:09;;;;;;;6.90;6.30;;;37.70;99.90;;;;;;4992685;28;20205;-39
2021/06/18 13:02:37;;;;;;;8.18;6.70;;;38.00;99.90;;;;;;4990731;28;20231;-38
2021/06/18 13:05:15;;;;;;;7.28;6.63;;;38.10;99.90;;;;;;4983961;28;20720;-38
2021/06/18 13:07:43;;;;;;;7.18;6.47;;;37.60;99.90;;;;;;4978496;28;20220;-38
2021/06/18 13:10:11;;;;;;;8.02;6.57;;;37.20;99.90;;;;;;4982814;28;20838;-39
2021/06/18 13:12:38;;;;;;;9.05;6.25;;;37.10;99.90;;;;;;4987921;28;20243;-39
2021/06/18 13:15:08;;;;;;;6.57;6.05;;;37.10;99.90;;;;;;4984052;28;20202;-39
2021/06/18 13:17:51;;;;;;;8.07;7.32;;;36.80;99.90;;;;;;4980473;28;20197;-37
2021/06/18 13:20:34;;;;;;;7.28;6.68;;;36.80;99.90;;;;;;4988130;28;20194;-39
2021/06/18 13:23:01;;;;;;;7.30;6.63;;;37.00;99.90;;;;;;4990881;28;20232;-39
2021/06/18 13:25:31;;;;;;;7.40;6.72;;;37.30;99.90;;;;;;4992116;28;20672;-39
2021/06/18 13:28:03;;;;;;;6.78;6.15;;;37.40;99.90;;;;;;4975356;28;20833;-38
2021/06/18 13:30:32;;;;;;;8.55;6.65;;;37.40;99.90;;;;;;4984360;28;20245;-38
2021/06/18 13:37:25;;;;;;;5.47;5.03;;;37.00;99.90;;;;;;4983604;28;20176;-42